createdAt,value
2022-10-10T00:01:34.382Z,97685.09
2022-10-10T00:04:03.797Z,97686.75
2022-10-10T00:06:33.362Z,97687.00
2022-10-10T00:09:02.962Z,97684.56
2022-10-10T00:11:31.251Z,97681.06
2022-10-10T00:13:59.309Z,97683.94
2022-10-10T00:16:27.247Z,97682.69
2022-10-10T00:18:55.060Z,97678.59
2022-10-10T00:21:22.905Z,97680.91
2022-10-10T00:23:50.889Z,97679.88
2022-10-10T00:26:19.501Z,97682.81
2022-10-10T00:28:48.161Z,97669.38
2022-10-10T00:31:16.487Z,97676.03
2022-10-10T00:33:44.498Z,97674.78
2022-10-10T00:36:12.509Z,97670.91
2022-10-10T00:38:41.099Z,97667.19
2022-10-10T00:41:09.216Z,97668.22
2022-10-10T00:43:37.149Z,97665.31
2022-10-10T00:46:05.323Z,97667.63
2022-10-10T00:48:44.581Z,97673.19
2022-10-10T00:51:17.176Z,97670.50
2022-10-10T00:53:52.215Z,97672.75
2022-10-10T00:56:26.111Z,97677.06
2022-10-10T00:58:58.013Z,97666.50
2022-10-10T01:01:26.436Z,97665.25
2022-10-10T01:03:59.216Z,97665.25
2022-10-10T01:06:27.513Z,97659.03
2022-10-10T01:08:56.727Z,97651.81
2022-10-10T01:12:13.758Z,97651.81
2022-10-10T01:14:59.392Z,97645.22
2022-10-10T01:17:47.744Z,97659.25
2022-10-10T01:20:43.606Z,97650.53
2022-10-10T01:24:01.588Z,97645.56
2022-10-10T01:27:01.345Z,97650.31
2022-10-10T01:29:53.801Z,97649.66
2022-10-10T01:32:34.592Z,97643.41
2022-10-10T01:35:22.601Z,97641.94
2022-10-10T01:38:30.083Z,97649.19
2022-10-10T01:41:19.164Z,97641.13
2022-10-10T01:43:47.226Z,97651.19
2022-10-10T01:46:18.806Z,97643.34
2022-10-10T01:48:52.721Z,97645.81
2022-10-10T01:51:58.363Z,97646.69
2022-10-10T01:55:02.177Z,97642.41
2022-10-10T01:57:52.139Z,97646.34
2022-10-10T02:00:20.104Z,97640.13
2022-10-10T02:03:16.308Z,97638.66
2022-10-10T02:06:09.917Z,97629.19
2022-10-10T02:09:11.128Z,97628.19
2022-10-10T02:11:40.950Z,97630.25
2022-10-10T02:14:32.055Z,97637.44
2022-10-10T02:17:03.167Z,97633.75
2022-10-10T02:19:31.537Z,97641.81
2022-10-10T02:22:00.623Z,97633.94
2022-10-10T02:24:28.553Z,97634.75
2022-10-10T02:27:22.200Z,97634.19
2022-10-10T02:29:52.997Z,97632.50
2022-10-10T02:32:43.828Z,97631.25
2022-10-10T02:35:25.373Z,97631.44
2022-10-10T02:37:54.331Z,97633.50
2022-10-10T02:40:28.474Z,97630.63
2022-10-10T02:43:00.141Z,97628.97
2022-10-10T02:45:30.595Z,97625.25
2022-10-10T02:47:58.646Z,97628.75
2022-10-10T02:50:28.815Z,97624.16
2022-10-10T02:52:57.776Z,97631.13
2022-10-10T02:55:26.363Z,97625.97
2022-10-10T02:57:54.530Z,97625.97
2022-10-10T03:00:22.325Z,97626.16
2022-10-10T03:02:50.360Z,97624.66
2022-10-10T03:05:18.405Z,97631.06
2022-10-10T03:07:46.248Z,97631.88
2022-10-10T03:10:14.149Z,97636.03
2022-10-10T03:12:41.923Z,97637.72
2022-10-10T03:15:11.898Z,97641.03
2022-10-10T03:17:40.211Z,97640.84
2022-10-10T03:20:08.739Z,97644.34
2022-10-10T03:22:36.589Z,97646.19
2022-10-10T03:25:05.061Z,97638.53
2022-10-10T03:27:32.855Z,97642.44
2022-10-10T03:30:00.630Z,97640.13
2022-10-10T03:32:28.436Z,97625.69
2022-10-10T03:34:56.180Z,97628.19
2022-10-10T03:37:24.009Z,97637.25
2022-10-10T03:39:52.046Z,97642.63
2022-10-10T03:42:19.808Z,97634.75
2022-10-10T03:44:47.554Z,97631.44
2022-10-10T03:47:15.295Z,97631.44
2022-10-10T03:49:43.022Z,97635.34
2022-10-10T03:52:10.797Z,97631.84
2022-10-10T03:54:38.562Z,97626.66
2022-10-10T03:57:06.366Z,97626.22
2022-10-10T03:59:34.136Z,97623.03
2022-10-10T04:02:01.916Z,97625.09
2022-10-10T04:04:29.697Z,97631.09
2022-10-10T04:06:57.442Z,97633.97
2022-10-10T04:09:25.321Z,97641.19
2022-10-10T04:11:53.060Z,97627.78
2022-10-10T04:14:21.126Z,97625.28
2022-10-10T04:16:48.952Z,97625.28
2022-10-10T04:19:16.887Z,97622.16
2022-10-10T04:21:44.977Z,97624.00
2022-10-10T04:24:13.246Z,97619.47
2022-10-10T04:26:41.046Z,97627.31
2022-10-10T04:29:09.035Z,97627.50
2022-10-10T04:31:36.868Z,97623.81
2022-10-10T04:34:04.669Z,97629.81
2022-10-10T04:36:32.415Z,97632.50
2022-10-10T04:39:00.175Z,97616.59
2022-10-10T04:41:27.935Z,97625.47
2022-10-10T04:43:56.001Z,97627.50
2022-10-10T04:46:23.900Z,97625.88
2022-10-10T04:48:51.749Z,97624.19
2022-10-10T04:51:19.519Z,97623.56
2022-10-10T04:53:50.374Z,97630.78
2022-10-10T04:56:18.371Z,97617.56
2022-10-10T04:58:46.162Z,97629.50
2022-10-10T05:01:14.152Z,97617.28
2022-10-10T05:03:41.977Z,97623.06
2022-10-10T05:06:09.793Z,97626.56
2022-10-10T05:08:40.527Z,97619.50
2022-10-10T05:11:08.331Z,97624.31
2022-10-10T05:13:37.254Z,97618.56
2022-10-10T05:16:05.269Z,97623.94
2022-10-10T05:18:33.464Z,97625.34
2022-10-10T05:21:03.666Z,97620.16
2022-10-10T05:23:32.134Z,97618.50
2022-10-10T05:25:59.955Z,97610.66
2022-10-10T05:28:27.815Z,97612.06
2022-10-10T05:30:55.634Z,97612.88
2022-10-10T05:33:23.480Z,97618.81
2022-10-10T05:35:51.258Z,97627.69
2022-10-10T05:38:19.127Z,97631.00
2022-10-10T05:40:46.853Z,97637.41
2022-10-10T05:43:15.115Z,97642.81
2022-10-10T05:45:43.328Z,97643.28
2022-10-10T05:48:11.098Z,97650.31
2022-10-10T05:50:41.809Z,97651.97
2022-10-10T05:53:09.577Z,97660.66
2022-10-10T05:55:37.369Z,97651.78
2022-10-10T05:58:05.808Z,97651.38
2022-10-10T06:00:34.979Z,97653.06
2022-10-10T06:03:03.291Z,97645.66
2022-10-10T06:05:31.135Z,97642.78
2022-10-10T06:08:07.969Z,97642.38
2022-10-10T06:10:42.982Z,97643.47
2022-10-10T06:13:14.466Z,97647.00
2022-10-10T06:15:42.656Z,97645.78
2022-10-10T06:18:11.651Z,97643.13
2022-10-10T06:20:41.194Z,97653.13
2022-10-10T06:23:09.541Z,97660.59
2022-10-10T06:25:41.764Z,97655.47
2022-10-10T06:28:11.472Z,97658.25
2022-10-10T06:30:44.194Z,97668.38
2022-10-10T06:33:12.936Z,97672.16
2022-10-10T06:35:45.781Z,97662.31
2022-10-10T06:38:15.498Z,97672.88
2022-10-10T06:40:44.158Z,97670.47
2022-10-10T06:43:14.064Z,97664.50
2022-10-10T06:45:47.529Z,97667.25
2022-10-10T06:48:16.140Z,97669.31
2022-10-10T06:50:43.900Z,97675.13
2022-10-10T06:53:11.658Z,97677.63
2022-10-10T06:55:47.431Z,97679.09
2022-10-10T06:58:15.286Z,97678.06
2022-10-10T07:00:53.520Z,97689.22
2022-10-10T07:03:22.116Z,97697.28
2022-10-10T07:05:55.496Z,97697.28
2022-10-10T07:08:24.716Z,97702.63
2022-10-10T07:10:52.734Z,97700.53
2022-10-10T07:13:21.341Z,97694.72
2022-10-10T07:15:49.379Z,97687.69
2022-10-10T07:18:20.774Z,97686.03
2022-10-10T07:20:49.602Z,97689.53
2022-10-10T07:23:18.022Z,97691.84
2022-10-10T07:25:46.488Z,97688.75
2022-10-10T07:28:14.589Z,97692.53
2022-10-10T07:30:45.015Z,97695.91
2022-10-10T07:33:14.266Z,97706.06
2022-10-10T07:35:42.865Z,97717.31
2022-10-10T07:38:13.427Z,97712.59
2022-10-10T07:40:41.672Z,97719.47
2022-10-10T07:43:09.554Z,97725.34
2022-10-10T07:45:37.383Z,97721.66
2022-10-10T07:48:05.590Z,97715.91
2022-10-10T07:50:33.426Z,97722.16
2022-10-10T07:53:01.249Z,97713.47
2022-10-10T07:55:29.479Z,97718.25
2022-10-10T07:57:59.844Z,97723.84
2022-10-10T08:00:27.872Z,97721.38
2022-10-10T08:02:55.791Z,97728.00
2022-10-10T08:05:23.535Z,97722.25
2022-10-10T08:07:51.572Z,97732.19
2022-10-10T08:10:19.594Z,97730.75
2022-10-10T08:12:48.427Z,97728.88
2022-10-10T08:15:16.390Z,97732.63
2022-10-10T08:17:44.221Z,97745.03
2022-10-10T08:20:12.220Z,97735.31
2022-10-10T08:22:40.371Z,97730.75
2022-10-10T08:25:08.806Z,97741.94
2022-10-10T08:27:36.624Z,97738.63
2022-10-10T08:30:05.630Z,97739.25
2022-10-10T08:32:33.586Z,97737.00
2022-10-10T08:35:01.539Z,97737.41
2022-10-10T08:37:35.131Z,97737.22
2022-10-10T08:40:06.193Z,97738.84
2022-10-10T08:42:56.487Z,97746.53
2022-10-10T08:45:27.749Z,97742.41
2022-10-10T08:48:10.938Z,97740.94
2022-10-10T08:50:49.238Z,97741.22
2022-10-10T08:53:47.290Z,97743.28
2022-10-10T08:56:23.469Z,97742.88
2022-10-10T08:59:00.699Z,97745.56
2022-10-10T09:01:35.417Z,97750.09
2022-10-10T09:04:06.631Z,97746.38
2022-10-10T09:07:18.473Z,97742.66
2022-10-10T09:10:06.724Z,97739.75
2022-10-10T09:13:19.203Z,97729.19
2022-10-10T09:16:19.670Z,97742.69
2022-10-10T09:18:56.222Z,97736.25
2022-10-10T09:21:36.585Z,97733.97
2022-10-10T09:24:27.421Z,97736.84
2022-10-10T09:27:04.730Z,97734.56
2022-10-10T09:29:41.361Z,97742.25
2022-10-10T09:32:28.624Z,97744.75
2022-10-10T09:35:22.308Z,97743.28
2022-10-10T09:38:01.395Z,97744.72
2022-10-10T09:40:37.899Z,97746.38
2022-10-10T09:43:16.658Z,97759.84
2022-10-10T09:45:56.766Z,97751.56
2022-10-10T09:48:41.671Z,97748.44
2022-10-10T09:51:15.597Z,97744.50
2022-10-10T09:53:45.686Z,97744.91
2022-10-10T09:56:20.787Z,97743.25
2022-10-10T09:58:52.307Z,97732.66
2022-10-10T10:01:25.958Z,97732.03
2022-10-10T10:04:27.825Z,97744.66
2022-10-10T10:07:06.378Z,97739.25
2022-10-10T10:09:34.629Z,97739.06
2022-10-10T10:12:04.571Z,97744.00
2022-10-10T10:14:38.038Z,97745.03
2022-10-10T10:17:21.119Z,97745.03
2022-10-10T10:19:49.424Z,97741.47
2022-10-10T10:22:47.212Z,97735.66
2022-10-10T10:25:37.736Z,97749.09
2022-10-10T10:28:11.678Z,97743.91
2022-10-10T10:30:41.229Z,97748.25
2022-10-10T10:34:00.127Z,97740.13
2022-10-10T10:36:46.464Z,97739.66
2022-10-10T10:39:25.811Z,97743.38
2022-10-10T10:42:59.394Z,97751.44
2022-10-10T10:46:01.012Z,97751.16
2022-10-10T10:49:14.690Z,97749.94
2022-10-10T10:52:16.080Z,97750.72
2022-10-10T10:54:52.844Z,97748.41
2022-10-10T10:58:48.828Z,97745.03
2022-10-10T11:01:23.961Z,97746.22
2022-10-10T11:05:18.246Z,97734.53
2022-10-10T11:07:19.516Z,97732.63
2022-10-10T11:10:12.099Z,97737.97
2022-10-10T11:13:25.099Z,97740.41
2022-10-10T11:16:36.286Z,97742.63
2022-10-10T11:19:39.406Z,97742.75
2022-10-10T11:22:22.333Z,97732.94
2022-10-10T11:25:23.438Z,97732.28
2022-10-10T11:28:24.207Z,97724.09
2022-10-10T11:30:59.738Z,97732.41
2022-10-10T11:33:44.467Z,97729.84
2022-10-10T11:36:15.297Z,97722.09
2022-10-10T11:39:15.602Z,97726.41
2022-10-10T11:42:35.709Z,97729.88
2022-10-10T11:45:15.781Z,97729.78
2022-10-10T11:48:00.902Z,97724.75
2022-10-10T11:50:34.541Z,97730.31
2022-10-10T11:53:16.356Z,97723.78
2022-10-10T11:55:55.973Z,97721.56
2022-10-10T11:58:35.537Z,97728.78
2022-10-10T12:01:28.911Z,97724.94
2022-10-10T12:03:57.511Z,97716.06
2022-10-10T12:06:39.567Z,97716.00
2022-10-10T12:09:14.109Z,97726.72
2022-10-10T12:11:59.521Z,97726.16
2022-10-10T12:14:31.401Z,97720.41
2022-10-10T12:17:00.322Z,97719.50
2022-10-10T12:19:29.110Z,97721.03
2022-10-10T12:21:59.768Z,97717.41
2022-10-10T12:24:32.158Z,97712.69
2022-10-10T12:26:59.808Z,97719.06
2022-10-10T12:29:57.692Z,97721.22
2022-10-10T12:32:42.792Z,97716.53
2022-10-10T12:35:42.399Z,97709.00
2022-10-10T12:38:25.656Z,97717.13
2022-10-10T12:41:08.921Z,97708.63
2022-10-10T12:43:43.287Z,97706.28
2022-10-10T12:46:21.738Z,97705.59
2022-10-10T12:49:20.484Z,97700.38
2022-10-10T12:52:21.857Z,97704.13
2022-10-10T12:54:52.051Z,97705.06
2022-10-10T12:57:26.066Z,97698.13
2022-10-10T12:59:56.593Z,97706.59
2022-10-10T13:02:28.274Z,97702.59
2022-10-10T13:05:02.604Z,97714.63
2022-10-10T13:07:31.474Z,97702.81
2022-10-10T13:10:20.233Z,97710.50
2022-10-10T13:13:20.029Z,97705.63
2022-10-10T13:15:57.275Z,97705.47
2022-10-10T13:18:42.220Z,97709.13
2022-10-10T13:21:14.544Z,97696.47
2022-10-10T13:26:50.205Z,97700.88
2022-10-10T13:29:36.656Z,97699.31
2022-10-10T13:32:11.439Z,97699.50
2022-10-10T13:34:45.611Z,97700.44
2022-10-10T13:37:17.804Z,97695.44
2022-10-10T13:39:47.941Z,97702.25
2022-10-10T13:42:37.139Z,97696.94
2022-10-10T13:45:27.882Z,97695.13
2022-10-10T13:48:00.983Z,97696.94
2022-10-10T13:50:34.157Z,97695.13
2022-10-10T13:53:27.009Z,97701.63
2022-10-10T13:56:06.810Z,97702.53
2022-10-10T13:58:54.581Z,97701.22
2022-10-10T14:01:38.954Z,97698.50
2022-10-10T14:04:12.678Z,97706.91
2022-10-10T14:07:02.331Z,97707.41
2022-10-10T14:09:42.203Z,97708.47
2022-10-10T14:12:32.011Z,97706.00
2022-10-10T14:15:01.637Z,97706.25
2022-10-10T14:17:29.870Z,97701.88
2022-10-10T14:19:58.090Z,97697.84
2022-10-10T14:22:26.797Z,97697.34
2022-10-10T14:24:54.668Z,97694.13
2022-10-10T14:27:24.277Z,97699.06
2022-10-10T14:29:54.480Z,97704.78
2022-10-10T14:32:23.775Z,97704.69
2022-10-10T14:34:51.964Z,97703.28
2022-10-10T14:37:25.291Z,97697.00
2022-10-10T14:39:53.488Z,97701.78
2022-10-10T14:42:23.568Z,97701.72
2022-10-10T14:44:51.506Z,97705.91
2022-10-10T14:47:25.042Z,97707.81
2022-10-10T14:49:53.492Z,97703.03
2022-10-10T14:52:21.494Z,97700.06
2022-10-10T14:54:49.265Z,97699.97
2022-10-10T14:57:19.765Z,97703.84
2022-10-10T14:59:50.028Z,97697.19
2022-10-10T15:02:22.715Z,97699.16
2022-10-10T15:04:50.878Z,97698.50
2022-10-10T15:07:19.222Z,97705.06
2022-10-10T15:10:26.086Z,97705.97
2022-10-10T15:12:40.925Z,97715.91
2022-10-10T15:15:11.136Z,97712.84
2022-10-10T15:17:39.410Z,97715.00
2022-10-10T15:20:10.392Z,97721.16
2022-10-10T15:22:38.963Z,97721.56
2022-10-10T15:25:08.707Z,97715.31
2022-10-10T15:27:37.634Z,97730.81
2022-10-10T15:30:07.040Z,97725.69
2022-10-10T15:32:40.042Z,97728.75
2022-10-10T15:35:13.221Z,97731.22
2022-10-10T15:37:41.033Z,97733.44
2022-10-10T15:40:09.748Z,97730.28
2022-10-10T15:42:37.644Z,97734.09
2022-10-10T15:45:05.944Z,97732.94
2022-10-10T15:47:33.903Z,97731.84
2022-10-10T15:50:01.746Z,97734.00
2022-10-10T15:52:29.517Z,97736.13
2022-10-10T15:54:57.392Z,97733.94
2022-10-10T15:57:25.189Z,97734.16
2022-10-10T15:59:52.922Z,97724.00
2022-10-10T16:02:20.828Z,97734.44
2022-10-10T16:04:48.751Z,97732.72
2022-10-10T16:07:38.439Z,97738.13
2022-10-10T16:10:04.872Z,97733.75
2022-10-10T16:12:32.729Z,97735.56
2022-10-10T16:15:06.001Z,97751.63
2022-10-10T16:17:35.035Z,97759.19
2022-10-10T16:20:03.204Z,97753.06
2022-10-10T16:22:31.124Z,97759.81
2022-10-10T16:27:47.980Z,97755.94
2022-10-10T16:30:16.590Z,97762.09
2022-10-10T16:32:44.469Z,97765.19
2022-10-10T16:35:12.259Z,97764.75
2022-10-10T16:37:40.155Z,97762.16
2022-10-10T16:40:08.862Z,97765.84
2022-10-10T16:42:36.859Z,97769.88
2022-10-10T16:45:05.821Z,97769.16
2022-10-10T16:47:34.069Z,97773.25
2022-10-10T16:50:02.472Z,97767.16
2022-10-10T16:52:30.519Z,97766.22
2022-10-10T16:54:58.274Z,97758.66
2022-10-10T16:57:26.077Z,97768.22
2022-10-10T16:59:53.822Z,97763.16
2022-10-10T17:02:24.557Z,97762.56
2022-10-10T17:04:52.837Z,97772.47
2022-10-10T17:07:21.050Z,97774.81
2022-10-10T17:09:48.901Z,97780.69
2022-10-10T17:12:17.005Z,97784.34
2022-10-10T17:14:44.778Z,97781.50
2022-10-10T17:17:13.592Z,97787.03
2022-10-10T17:19:41.743Z,97794.66
2022-10-10T17:22:09.610Z,97798.53
2022-10-10T17:24:37.442Z,97794.59
2022-10-10T17:27:05.267Z,97800.50
2022-10-10T17:29:33.095Z,97802.25
2022-10-10T17:32:05.941Z,97803.78
2022-10-10T17:34:34.966Z,97799.69
2022-10-10T17:37:03.954Z,97805.78
2022-10-10T17:39:32.604Z,97809.06
2022-10-10T17:42:00.635Z,97816.81
2022-10-10T17:44:28.494Z,97814.78
2022-10-10T17:46:56.343Z,97805.91
2022-10-10T17:49:24.443Z,97806.63
2022-10-10T17:51:52.260Z,97801.88
2022-10-10T17:54:20.204Z,97800.06
2022-10-10T17:56:47.989Z,97802.66
2022-10-10T17:59:16.358Z,97810.19
2022-10-10T18:01:44.186Z,97808.91
2022-10-10T18:04:15.915Z,97811.59
2022-10-10T18:06:43.753Z,97827.03
2022-10-10T18:09:11.789Z,97851.91
2022-10-10T18:11:39.603Z,97859.31
2022-10-10T18:14:07.357Z,97865.63
2022-10-10T18:16:35.853Z,97877.97
2022-10-10T18:19:07.482Z,97871.59
2022-10-10T18:21:35.520Z,97839.91
2022-10-10T18:24:03.641Z,97856.50
2022-10-10T18:26:32.046Z,97856.03
2022-10-10T18:28:59.898Z,97864.66
2022-10-10T18:31:33.295Z,97857.84
2022-10-10T18:34:03.389Z,97869.72
2022-10-10T18:36:36.007Z,97864.56
2022-10-10T18:39:16.579Z,97866.25
2022-10-10T18:41:44.568Z,97865.03
2022-10-10T18:44:16.900Z,97863.41
2022-10-10T18:46:46.303Z,97869.25
2022-10-10T18:49:14.489Z,97870.50
2022-10-10T18:51:43.646Z,97865.28
2022-10-10T18:54:17.012Z,97868.00
2022-10-10T18:56:46.133Z,97857.41
2022-10-10T18:59:22.212Z,97868.22
2022-10-10T19:01:52.438Z,97859.72
2022-10-10T19:04:21.433Z,97862.84
2022-10-10T19:06:54.651Z,97870.31
2022-10-10T19:09:25.182Z,97898.34
2022-10-10T19:11:53.510Z,97945.50
2022-10-10T19:14:21.573Z,97939.91
2022-10-10T19:16:49.457Z,97929.13
2022-10-10T19:19:19.897Z,97928.03
2022-10-10T19:21:48.674Z,97887.16
2022-10-10T19:24:20.851Z,97900.00
2022-10-10T19:26:56.005Z,97909.28
2022-10-10T19:29:27.508Z,97896.41
2022-10-10T19:31:56.243Z,97898.47
2022-10-10T19:34:24.300Z,97884.75
2022-10-10T19:36:52.167Z,97897.94
2022-10-10T19:39:20.116Z,97895.06
2022-10-10T19:41:48.021Z,97900.66
2022-10-10T19:44:15.885Z,97898.38
2022-10-10T19:46:43.680Z,97895.00
2022-10-10T19:49:11.675Z,97896.63
2022-10-10T19:51:39.647Z,97904.94
2022-10-10T19:54:07.481Z,97917.16
2022-10-10T19:56:36.735Z,97918.41
2022-10-10T19:59:05.770Z,97920.50
2022-10-10T20:01:33.722Z,97933.19
2022-10-10T20:04:01.623Z,97936.50
2022-10-10T20:06:29.456Z,97945.03
2022-10-10T20:08:57.428Z,97949.00
2022-10-10T20:11:26.485Z,97941.75
2022-10-10T20:13:55.778Z,97942.75
2022-10-10T20:16:26.853Z,97940.91
2022-10-10T20:18:57.137Z,97947.75
2022-10-10T20:21:32.686Z,97956.28
2022-10-10T20:24:08.224Z,97959.59
2022-10-10T20:26:36.741Z,97964.56
2022-10-10T20:29:06.080Z,97968.75
2022-10-10T20:31:36.208Z,97973.50
2022-10-10T20:34:06.941Z,97991.78
2022-10-10T20:36:35.498Z,97987.66
2022-10-10T20:39:08.321Z,97991.59
2022-10-10T20:41:38.447Z,97994.72
2022-10-10T20:44:08.302Z,98001.19
2022-10-10T20:46:39.258Z,98003.66
2022-10-10T20:49:16.957Z,98009.91
2022-10-10T20:51:48.678Z,98019.44
2022-10-10T20:54:24.533Z,98011.34
2022-10-10T20:56:52.396Z,98015.31
2022-10-10T20:59:21.408Z,98011.59
2022-10-10T21:01:49.307Z,98015.09
2022-10-10T21:04:17.367Z,98019.47
2022-10-10T21:06:45.368Z,98023.44
2022-10-10T21:09:15.327Z,98017.84
2022-10-10T21:11:46.473Z,98020.53
2022-10-10T21:14:16.653Z,98020.53
2022-10-10T21:16:44.753Z,98024.44
2022-10-10T21:19:13.577Z,98030.88
2022-10-10T21:21:41.373Z,98028.38
2022-10-10T21:24:11.332Z,98028.00
2022-10-10T21:26:41.711Z,98038.97
2022-10-10T21:29:09.980Z,98040.47
2022-10-10T21:31:40.187Z,98043.78
2022-10-10T21:34:13.387Z,98045.03
2022-10-10T21:36:41.654Z,98041.06
2022-10-10T21:39:11.419Z,98037.53
2022-10-10T21:41:39.404Z,98042.53
2022-10-10T21:44:07.260Z,98051.44
2022-10-10T21:46:37.107Z,98040.03
2022-10-10T21:49:09.187Z,98041.69
2022-10-10T21:51:40.775Z,98040.88
2022-10-10T21:54:10.063Z,98033.63
2022-10-10T21:56:38.656Z,98038.56
2022-10-10T21:59:07.118Z,98041.25
2022-10-10T22:01:37.422Z,98046.47
2022-10-10T22:04:06.103Z,98047.31
2022-10-10T22:06:34.795Z,98055.16
2022-10-10T22:09:02.882Z,98060.75
2022-10-10T22:11:34.517Z,98061.34
2022-10-10T22:14:03.860Z,98058.81
2022-10-10T22:16:33.666Z,98056.97
2022-10-10T22:19:04.339Z,98072.34
2022-10-10T22:21:34.914Z,98078.31
2022-10-10T22:24:07.570Z,98075.03
2022-10-10T22:26:36.275Z,98078.53
2022-10-10T22:29:04.745Z,98081.69
2022-10-10T22:31:35.636Z,98080.06
2022-10-10T22:34:05.782Z,98085.25
2022-10-10T22:36:34.451Z,98083.81
2022-10-10T22:39:02.289Z,98086.69
2022-10-10T22:41:30.100Z,98094.16
2022-10-10T22:43:57.865Z,98090.41
2022-10-10T22:46:25.790Z,98093.97
2022-10-10T22:48:53.564Z,98100.81
2022-10-10T22:51:21.458Z,98098.09
2022-10-10T22:53:49.404Z,98102.25
2022-10-10T22:56:20.408Z,98109.13
2022-10-10T22:58:50.319Z,98097.91
2022-10-10T23:01:23.371Z,98104.78
2022-10-10T23:03:56.750Z,98106.06
2022-10-10T23:06:24.835Z,98104.19
2022-10-10T23:08:53.828Z,98097.34
2022-10-10T23:11:21.635Z,98104.56
2022-10-10T23:13:49.407Z,98103.13
2022-10-10T23:16:17.139Z,98098.97
2022-10-10T23:18:45.213Z,98100.00
2022-10-10T23:21:13.049Z,98107.25
2022-10-10T23:23:41.051Z,98107.81
2022-10-10T23:26:09.881Z,98108.63
2022-10-10T23:28:39.427Z,98101.13
2022-10-10T23:31:10.120Z,98102.09
2022-10-10T23:33:39.071Z,98101.91
2022-10-10T23:36:11.587Z,98094.03
2022-10-10T23:38:40.829Z,98106.06
2022-10-10T23:41:10.348Z,98106.28
2022-10-10T23:43:38.632Z,98103.78
2022-10-10T23:46:07.155Z,98109.38
2022-10-10T23:48:35.559Z,98119.09
2022-10-10T23:51:04.786Z,98123.00
2022-10-10T23:53:33.909Z,98123.59
2022-10-10T23:56:02.119Z,98122.38
2022-10-10T23:58:30.276Z,98123.41
